sensor_id;sensor_type;location;lat;lon;timestamp;P1;durP1;ratioP1;P2;durP2;ratioP2
43861;SDS011;29510;52.140;5.034;2024-01-10T00:07:40;4.78;;;2.55;;
43861;SDS011;29510;52.140;5.034;2024-01-10T00:17:41;5.22;;;2.70;;
43861;SDS011;29510;52.140;5.034;2024-01-10T00:27:41;5.83;;;2.60;;
43861;SDS011;29510;52.140;5.034;2024-01-10T00:37:42;5.57;;;2.38;;
43861;SDS011;29510;52.140;5.034;2024-01-10T00:47:43;6.70;;;2.38;;
43861;SDS011;29510;52.140;5.034;2024-01-10T00:57:43;5.13;;;2.10;;
43861;SDS011;29510;52.140;5.034;2024-01-10T01:07:44;4.97;;;2.42;;
43861;SDS011;29510;52.140;5.034;2024-01-10T01:17:45;5.60;;;2.23;;
43861;SDS011;29510;52.140;5.034;2024-01-10T01:27:45;8.13;;;2.53;;
43861;SDS011;29510;52.140;5.034;2024-01-10T01:37:46;5.80;;;2.28;;
43861;SDS011;29510;52.140;5.034;2024-01-10T01:47:46;5.38;;;2.65;;
43861;SDS011;29510;52.140;5.034;2024-01-10T01:57:47;6.80;;;2.97;;
43861;SDS011;29510;52.140;5.034;2024-01-10T02:07:48;8.23;;;3.35;;
43861;SDS011;29510;52.140;5.034;2024-01-10T02:17:48;8.73;;;4.32;;
43861;SDS011;29510;52.140;5.034;2024-01-10T02:27:49;8.98;;;4.13;;
43861;SDS011;29510;52.140;5.034;2024-01-10T02:37:49;7.72;;;3.45;;
43861;SDS011;29510;52.140;5.034;2024-01-10T02:47:51;9.27;;;4.10;;
43861;SDS011;29510;52.140;5.034;2024-01-10T02:57:52;7.95;;;4.30;;
43861;SDS011;29510;52.140;5.034;2024-01-10T03:07:52;8.70;;;4.00;;
43861;SDS011;29510;52.140;5.034;2024-01-10T03:17:53;7.10;;;3.63;;
43861;SDS011;29510;52.140;5.034;2024-01-10T03:27:54;6.13;;;3.08;;
43861;SDS011;29510;52.140;5.034;2024-01-10T03:37:54;7.57;;;3.15;;
43861;SDS011;29510;52.140;5.034;2024-01-10T03:47:55;10.23;;;3.67;;
43861;SDS011;29510;52.140;5.034;2024-01-10T03:57:56;7.45;;;3.00;;
43861;SDS011;29510;52.140;5.034;2024-01-10T04:07:56;8.98;;;3.33;;
43861;SDS011;29510;52.140;5.034;2024-01-10T04:17:58;10.95;;;3.35;;
43861;SDS011;29510;52.140;5.034;2024-01-10T04:27:58;6.50;;;3.33;;
43861;SDS011;29510;52.140;5.034;2024-01-10T04:37:59;6.88;;;3.13;;
43861;SDS011;29510;52.140;5.034;2024-01-10T04:47:59;8.23;;;3.28;;
43861;SDS011;29510;52.140;5.034;2024-01-10T04:58:00;7.50;;;3.88;;
43861;SDS011;29510;52.140;5.034;2024-01-10T05:08:00;7.28;;;3.60;;
43861;SDS011;29510;52.140;5.034;2024-01-10T05:18:01;8.55;;;4.20;;
43861;SDS011;29510;52.140;5.034;2024-01-10T05:28:03;10.00;;;4.30;;
43861;SDS011;29510;52.140;5.034;2024-01-10T05:38:03;7.57;;;4.07;;
43861;SDS011;29510;52.140;5.034;2024-01-10T05:48:04;9.43;;;4.60;;
43861;SDS011;29510;52.140;5.034;2024-01-10T05:58:06;10.52;;;4.47;;
43861;SDS011;29510;52.140;5.034;2024-01-10T06:08:09;10.63;;;4.07;;
43861;SDS011;29510;52.140;5.034;2024-01-10T06:18:10;9.25;;;4.10;;
43861;SDS011;29510;52.140;5.034;2024-01-10T06:28:11;8.25;;;3.53;;
43861;SDS011;29510;52.140;5.034;2024-01-10T06:38:11;8.30;;;3.55;;
43861;SDS011;29510;52.140;5.034;2024-01-10T06:48:12;9.23;;;4.22;;
43861;SDS011;29510;52.140;5.034;2024-01-10T06:58:13;9.23;;;4.03;;
43861;SDS011;29510;52.140;5.034;2024-01-10T07:08:14;7.90;;;3.47;;
43861;SDS011;29510;52.140;5.034;2024-01-10T07:18:14;9.05;;;3.67;;
43861;SDS011;29510;52.140;5.034;2024-01-10T07:28:16;8.77;;;3.67;;
43861;SDS011;29510;52.140;5.034;2024-01-10T07:38:17;7.53;;;3.15;;
43861;SDS011;29510;52.140;5.034;2024-01-10T07:48:18;6.95;;;3.28;;
43861;SDS011;29510;52.140;5.034;2024-01-10T07:58:22;7.90;;;3.55;;
43861;SDS011;29510;52.140;5.034;2024-01-10T08:08:22;9.73;;;4.18;;
43861;SDS011;29510;52.140;5.034;2024-01-10T08:18:23;8.98;;;3.72;;
43861;SDS011;29510;52.140;5.034;2024-01-10T08:28:24;6.80;;;3.17;;
43861;SDS011;29510;52.140;5.034;2024-01-10T08:38:26;7.57;;;3.30;;
43861;SDS011;29510;52.140;5.034;2024-01-10T08:48:26;6.15;;;3.30;;
43861;SDS011;29510;52.140;5.034;2024-01-10T08:58:27;8.60;;;3.78;;
43861;SDS011;29510;52.140;5.034;2024-01-10T09:08:27;8.75;;;3.80;;
43861;SDS011;29510;52.140;5.034;2024-01-10T09:18:28;8.50;;;4.05;;
43861;SDS011;29510;52.140;5.034;2024-01-10T09:28:29;8.60;;;3.10;;
43861;SDS011;29510;52.140;5.034;2024-01-10T09:38:29;9.10;;;3.45;;
43861;SDS011;29510;52.140;5.034;2024-01-10T09:48:34;7.68;;;3.50;;
43861;SDS011;29510;52.140;5.034;2024-01-10T09:58:35;8.87;;;3.90;;
43861;SDS011;29510;52.140;5.034;2024-01-10T10:08:40;10.27;;;4.07;;
43861;SDS011;29510;52.140;5.034;2024-01-10T10:18:43;11.35;;;4.60;;
43861;SDS011;29510;52.140;5.034;2024-01-10T10:28:45;10.73;;;4.15;;
43861;SDS011;29510;52.140;5.034;2024-01-10T10:38:47;10.10;;;4.13;;
43861;SDS011;29510;52.140;5.034;2024-01-10T10:48:50;11.45;;;4.45;;
43861;SDS011;29510;52.140;5.034;2024-01-10T10:58:51;8.18;;;4.25;;
43861;SDS011;29510;52.140;5.034;2024-01-10T11:09:04;12.90;;;4.25;;
43861;SDS011;29510;52.140;5.034;2024-01-10T11:29:36;9.68;;;3.88;;
43861;SDS011;29510;52.140;5.034;2024-01-10T11:39:40;8.70;;;4.32;;
43861;SDS011;29510;52.140;5.034;2024-01-10T11:49:53;10.77;;;3.95;;
43861;SDS011;29510;52.140;5.034;2024-01-10T11:59:57;11.43;;;4.63;;
43861;SDS011;29510;52.140;5.034;2024-01-10T12:10:03;13.88;;;5.35;;
43861;SDS011;29510;52.140;5.034;2024-01-10T12:20:04;11.02;;;4.57;;
43861;SDS011;29510;52.140;5.034;2024-01-10T12:30:06;10.88;;;4.72;;
43861;SDS011;29510;52.140;5.034;2024-01-10T12:40:07;8.45;;;4.45;;
43861;SDS011;29510;52.140;5.034;2024-01-10T12:50:09;10.98;;;4.50;;
43861;SDS011;29510;52.140;5.034;2024-01-10T13:00:10;8.73;;;4.72;;
43861;SDS011;29510;52.140;5.034;2024-01-10T13:10:11;9.30;;;4.78;;
43861;SDS011;29510;52.140;5.034;2024-01-10T13:20:12;10.95;;;5.07;;
43861;SDS011;29510;52.140;5.034;2024-01-10T13:30:13;10.77;;;5.45;;
43861;SDS011;29510;52.140;5.034;2024-01-10T13:40:14;9.55;;;4.80;;
43861;SDS011;29510;52.140;5.034;2024-01-10T13:50:15;11.90;;;5.13;;
43861;SDS011;29510;52.140;5.034;2024-01-10T14:00:16;10.90;;;5.35;;
43861;SDS011;29510;52.140;5.034;2024-01-10T14:10:19;9.55;;;4.63;;
43861;SDS011;29510;52.140;5.034;2024-01-10T14:20:20;10.50;;;4.93;;
43861;SDS011;29510;52.140;5.034;2024-01-10T14:30:21;11.68;;;4.90;;
43861;SDS011;29510;52.140;5.034;2024-01-10T14:40:22;11.43;;;5.05;;
43861;SDS011;29510;52.140;5.034;2024-01-10T14:50:23;10.30;;;4.93;;
43861;SDS011;29510;52.140;5.034;2024-01-10T15:00:24;9.20;;;4.65;;
43861;SDS011;29510;52.140;5.034;2024-01-10T15:10:25;11.15;;;5.45;;
43861;SDS011;29510;52.140;5.034;2024-01-10T15:20:25;10.75;;;5.40;;
43861;SDS011;29510;52.140;5.034;2024-01-10T15:30:27;14.32;;;5.13;;
43861;SDS011;29510;52.140;5.034;2024-01-10T15:40:28;11.25;;;5.53;;
43861;SDS011;29510;52.140;5.034;2024-01-10T15:50:28;9.73;;;4.95;;
43861;SDS011;29510;52.140;5.034;2024-01-10T16:00:29;9.80;;;5.40;;
43861;SDS011;29510;52.140;5.034;2024-01-10T16:10:29;10.45;;;5.25;;
43861;SDS011;29510;52.140;5.034;2024-01-10T16:20:30;13.98;;;6.53;;
43861;SDS011;29510;52.140;5.034;2024-01-10T16:30:30;10.70;;;5.30;;
43861;SDS011;29510;52.140;5.034;2024-01-10T16:40:31;12.60;;;5.80;;
43861;SDS011;29510;52.140;5.034;2024-01-10T16:50:32;13.43;;;5.93;;
43861;SDS011;29510;52.140;5.034;2024-01-10T17:00:32;11.82;;;5.72;;
43861;SDS011;29510;52.140;5.034;2024-01-10T17:10:33;12.20;;;6.30;;
43861;SDS011;29510;52.140;5.034;2024-01-10T17:20:34;11.70;;;6.25;;
43861;SDS011;29510;52.140;5.034;2024-01-10T17:30:34;13.23;;;6.95;;
43861;SDS011;29510;52.140;5.034;2024-01-10T17:40:35;13.32;;;6.63;;
43861;SDS011;29510;52.140;5.034;2024-01-10T17:50:36;17.00;;;7.10;;
43861;SDS011;29510;52.140;5.034;2024-01-10T18:00:37;14.18;;;6.38;;
43861;SDS011;29510;52.140;5.034;2024-01-10T18:10:39;15.27;;;6.85;;
43861;SDS011;29510;52.140;5.034;2024-01-10T18:20:40;10.43;;;5.30;;
43861;SDS011;29510;52.140;5.034;2024-01-10T18:30:41;38.88;;;15.20;;
43861;SDS011;29510;52.140;5.034;2024-01-10T18:40:42;20.63;;;8.93;;
43861;SDS011;29510;52.140;5.034;2024-01-10T18:50:43;16.30;;;7.88;;
43861;SDS011;29510;52.140;5.034;2024-01-10T19:00:43;16.77;;;7.25;;
43861;SDS011;29510;52.140;5.034;2024-01-10T19:10:44;13.77;;;6.73;;
43861;SDS011;29510;52.140;5.034;2024-01-10T19:20:45;10.73;;;5.90;;
43861;SDS011;29510;52.140;5.034;2024-01-10T19:30:46;11.90;;;5.65;;
43861;SDS011;29510;52.140;5.034;2024-01-10T19:40:46;14.20;;;6.93;;
43861;SDS011;29510;52.140;5.034;2024-01-10T19:50:47;10.57;;;5.40;;
43861;SDS011;29510;52.140;5.034;2024-01-10T20:00:47;11.30;;;5.88;;
43861;SDS011;29510;52.140;5.034;2024-01-10T20:10:48;12.55;;;6.13;;
43861;SDS011;29510;52.140;5.034;2024-01-10T20:20:49;14.57;;;6.50;;
43861;SDS011;29510;52.140;5.034;2024-01-10T20:30:50;13.15;;;5.32;;
43861;SDS011;29510;52.140;5.034;2024-01-10T20:40:51;11.60;;;5.53;;
43861;SDS011;29510;52.140;5.034;2024-01-10T20:50:51;10.88;;;5.68;;
43861;SDS011;29510;52.140;5.034;2024-01-10T21:00:52;13.60;;;5.93;;
43861;SDS011;29510;52.140;5.034;2024-01-10T21:10:53;12.20;;;6.25;;
43861;SDS011;29510;52.140;5.034;2024-01-10T21:20:54;15.40;;;6.53;;
43861;SDS011;29510;52.140;5.034;2024-01-10T21:30:57;15.18;;;6.93;;
43861;SDS011;29510;52.140;5.034;2024-01-10T21:40:58;15.55;;;7.25;;
43861;SDS011;29510;52.140;5.034;2024-01-10T21:50:59;11.95;;;6.40;;
43861;SDS011;29510;52.140;5.034;2024-01-10T22:01:01;17.38;;;6.93;;
43861;SDS011;29510;52.140;5.034;2024-01-10T22:11:01;13.07;;;6.45;;
43861;SDS011;29510;52.140;5.034;2024-01-10T22:21:02;14.32;;;5.85;;
43861;SDS011;29510;52.140;5.034;2024-01-10T22:31:03;14.40;;;6.45;;
43861;SDS011;29510;52.140;5.034;2024-01-10T22:41:04;14.40;;;6.80;;
43861;SDS011;29510;52.140;5.034;2024-01-10T22:51:04;16.13;;;6.95;;
43861;SDS011;29510;52.140;5.034;2024-01-10T23:01:05;18.42;;;7.15;;
43861;SDS011;29510;52.140;5.034;2024-01-10T23:11:06;14.32;;;6.50;;
43861;SDS011;29510;52.140;5.034;2024-01-10T23:21:10;13.17;;;7.20;;
43861;SDS011;29510;52.140;5.034;2024-01-10T23:31:17;18.73;;;6.65;;
43861;SDS011;29510;52.140;5.034;2024-01-10T23:41:18;17.05;;;7.20;;
43861;SDS011;29510;52.140;5.034;2024-01-10T23:51:19;17.75;;;7.47;;
